sensor_id;sensor_type;location;lat;lon;timestamp;temperature;humidity
16114;DHT22;8161;-33.910;151.156;2022-12-01T00:01:17;24.00;99.90
16114;DHT22;8161;-33.910;151.156;2022-12-01T00:03:45;23.10;99.90
16114;DHT22;8161;-33.910;151.156;2022-12-01T00:06:14;23.40;99.90
16114;DHT22;8161;-33.910;151.156;2022-12-01T00:08:43;23.60;99.90
16114;DHT22;8161;-33.910;151.156;2022-12-01T00:11:23;23.90;99.90
16114;DHT22;8161;-33.910;151.156;2022-12-01T00:13:50;23.70;99.90
16114;DHT22;8161;-33.910;151.156;2022-12-01T00:16:17;23.70;99.90
16114;DHT22;8161;-33.910;151.156;2022-12-01T00:18:49;24.10;99.90
16114;DHT22;8161;-33.910;151.156;2022-12-01T00:21:18;23.70;99.90
16114;DHT22;8161;-33.910;151.156;2022-12-01T00:23:47;23.40;99.90
16114;DHT22;8161;-33.910;151.156;2022-12-01T00:26:16;23.80;99.90
16114;DHT22;8161;-33.910;151.156;2022-12-01T00:28:48;23.80;99.90
16114;DHT22;8161;-33.910;151.156;2022-12-01T00:31:15;23.80;99.90
16114;DHT22;8161;-33.910;151.156;2022-12-01T00:33:43;23.90;99.90
16114;DHT22;8161;-33.910;151.156;2022-12-01T00:36:10;23.90;99.90
16114;DHT22;8161;-33.910;151.156;2022-12-01T00:38:38;24.20;99.90
16114;DHT22;8161;-33.910;151.156;2022-12-01T00:41:05;23.80;99.90
16114;DHT22;8161;-33.910;151.156;2022-12-01T00:43:33;23.90;99.90
16114;DHT22;8161;-33.910;151.156;2022-12-01T00:46:00;24.00;99.90
16114;DHT22;8161;-33.910;151.156;2022-12-01T00:48:27;24.00;99.90
16114;DHT22;8161;-33.910;151.156;2022-12-01T00:50:55;23.90;99.90
16114;DHT22;8161;-33.910;151.156;2022-12-01T00:53:23;24.10;99.90
16114;DHT22;8161;-33.910;151.156;2022-12-01T00:55:50;24.10;99.90
16114;DHT22;8161;-33.910;151.156;2022-12-01T00:58:19;24.40;99.90
16114;DHT22;8161;-33.910;151.156;2022-12-01T01:00:47;24.10;99.90
16114;DHT22;8161;-33.910;151.156;2022-12-01T01:03:14;24.50;99.90
16114;DHT22;8161;-33.910;151.156;2022-12-01T01:05:42;24.20;99.90
16114;DHT22;8161;-33.910;151.156;2022-12-01T01:08:13;24.40;99.90
16114;DHT22;8161;-33.910;151.156;2022-12-01T01:10:45;24.60;99.90
16114;DHT22;8161;-33.910;151.156;2022-12-01T01:13:14;24.30;99.90
16114;DHT22;8161;-33.910;151.156;2022-12-01T01:15:41;24.60;99.90
16114;DHT22;8161;-33.910;151.156;2022-12-01T01:18:10;24.80;99.90
16114;DHT22;8161;-33.910;151.156;2022-12-01T01:20:38;24.50;99.90
16114;DHT22;8161;-33.910;151.156;2022-12-01T01:23:05;24.40;99.90
16114;DHT22;8161;-33.910;151.156;2022-12-01T01:25:33;24.90;99.90
16114;DHT22;8161;-33.910;151.156;2022-12-01T01:28:00;24.80;99.90
16114;DHT22;8161;-33.910;151.156;2022-12-01T01:30:28;24.70;99.90
16114;DHT22;8161;-33.910;151.156;2022-12-01T01:32:55;24.50;99.90
16114;DHT22;8161;-33.910;151.156;2022-12-01T01:35:22;24.70;99.90
16114;DHT22;8161;-33.910;151.156;2022-12-01T01:37:50;24.90;99.90
16114;DHT22;8161;-33.910;151.156;2022-12-01T01:40:17;25.50;99.90
16114;DHT22;8161;-33.910;151.156;2022-12-01T01:42:45;25.20;99.90
16114;DHT22;8161;-33.910;151.156;2022-12-01T01:45:23;25.40;99.90
16114;DHT22;8161;-33.910;151.156;2022-12-01T01:47:52;25.70;99.90
16114;DHT22;8161;-33.910;151.156;2022-12-01T01:50:23;25.90;99.90
16114;DHT22;8161;-33.910;151.156;2022-12-01T01:52:56;25.90;99.90
16114;DHT22;8161;-33.910;151.156;2022-12-01T01:55:25;26.00;99.90
16114;DHT22;8161;-33.910;151.156;2022-12-01T01:57:56;25.90;99.90
16114;DHT22;8161;-33.910;151.156;2022-12-01T02:00:24;25.90;99.90
16114;DHT22;8161;-33.910;151.156;2022-12-01T02:02:51;25.60;99.90
16114;DHT22;8161;-33.910;151.156;2022-12-01T02:05:25;25.70;99.90
16114;DHT22;8161;-33.910;151.156;2022-12-01T02:07:56;25.70;99.90
16114;DHT22;8161;-33.910;151.156;2022-12-01T02:41:10;25.10;99.90
16114;DHT22;8161;-33.910;151.156;2022-12-01T02:46:31;25.40;99.90
16114;DHT22;8161;-33.910;151.156;2022-12-01T02:49:09;24.90;99.90
16114;DHT22;8161;-33.910;151.156;2022-12-01T02:51:39;24.70;99.90
16114;DHT22;8161;-33.910;151.156;2022-12-01T02:54:11;24.70;99.90
16114;DHT22;8161;-33.910;151.156;2022-12-01T02:56:39;24.80;99.90
16114;DHT22;8161;-33.910;151.156;2022-12-01T02:59:11;24.90;99.90
16114;DHT22;8161;-33.910;151.156;2022-12-01T03:18:17;25.50;99.90
16114;DHT22;8161;-33.910;151.156;2022-12-01T03:20:55;25.70;99.90
16114;DHT22;8161;-33.910;151.156;2022-12-01T03:23:27;25.80;99.90
16114;DHT22;8161;-33.910;151.156;2022-12-01T03:25:58;25.90;99.90
16114;DHT22;8161;-33.910;151.156;2022-12-01T03:28:31;26.10;99.90
16114;DHT22;8161;-33.910;151.156;2022-12-01T03:31:02;26.60;99.90
16114;DHT22;8161;-33.910;151.156;2022-12-01T03:33:39;26.20;99.90
16114;DHT22;8161;-33.910;151.156;2022-12-01T03:36:16;26.50;99.90
16114;DHT22;8161;-33.910;151.156;2022-12-01T03:38:50;26.10;99.90
16114;DHT22;8161;-33.910;151.156;2022-12-01T03:41:23;25.90;99.90
16114;DHT22;8161;-33.910;151.156;2022-12-01T03:44:00;25.90;99.90
16114;DHT22;8161;-33.910;151.156;2022-12-01T03:46:48;25.60;99.90
16114;DHT22;8161;-33.910;151.156;2022-12-01T03:49:17;26.00;99.90
16114;DHT22;8161;-33.910;151.156;2022-12-01T03:54:45;26.00;99.90
16114;DHT22;8161;-33.910;151.156;2022-12-01T03:57:24;25.90;99.90
16114;DHT22;8161;-33.910;151.156;2022-12-01T03:59:52;25.90;99.90
16114;DHT22;8161;-33.910;151.156;2022-12-01T04:02:20;25.90;99.90
16114;DHT22;8161;-33.910;151.156;2022-12-01T04:04:50;25.70;99.90
16114;DHT22;8161;-33.910;151.156;2022-12-01T04:07:18;25.60;99.90
16114;DHT22;8161;-33.910;151.156;2022-12-01T04:09:46;26.00;99.90
16114;DHT22;8161;-33.910;151.156;2022-12-01T04:12:14;26.00;99.90
16114;DHT22;8161;-33.910;151.156;2022-12-01T04:15:00;26.20;99.90
16114;DHT22;8161;-33.910;151.156;2022-12-01T04:17:27;26.40;99.90
16114;DHT22;8161;-33.910;151.156;2022-12-01T04:19:55;26.10;99.90
16114;DHT22;8161;-33.910;151.156;2022-12-01T04:22:23;26.20;99.90
16114;DHT22;8161;-33.910;151.156;2022-12-01T04:24:54;26.10;99.90
16114;DHT22;8161;-33.910;151.156;2022-12-01T04:27:21;26.00;99.90
16114;DHT22;8161;-33.910;151.156;2022-12-01T04:29:48;25.90;99.90
16114;DHT22;8161;-33.910;151.156;2022-12-01T04:32:16;25.80;99.90
16114;DHT22;8161;-33.910;151.156;2022-12-01T04:34:43;25.80;99.90
16114;DHT22;8161;-33.910;151.156;2022-12-01T04:37:10;25.20;99.90
16114;DHT22;8161;-33.910;151.156;2022-12-01T04:39:38;25.60;99.90
16114;DHT22;8161;-33.910;151.156;2022-12-01T04:42:11;25.70;99.90
16114;DHT22;8161;-33.910;151.156;2022-12-01T04:44:38;25.80;99.90
16114;DHT22;8161;-33.910;151.156;2022-12-01T04:47:06;25.80;99.90
16114;DHT22;8161;-33.910;151.156;2022-12-01T04:49:33;25.70;99.90
16114;DHT22;8161;-33.910;151.156;2022-12-01T04:52:02;25.70;99.90
16114;DHT22;8161;-33.910;151.156;2022-12-01T04:54:30;25.80;99.90
16114;DHT22;8161;-33.910;151.156;2022-12-01T04:56:57;25.80;99.90
16114;DHT22;8161;-33.910;151.156;2022-12-01T04:59:24;25.60;99.90
16114;DHT22;8161;-33.910;151.156;2022-12-01T05:01:52;25.90;99.90
16114;DHT22;8161;-33.910;151.156;2022-12-01T05:04:19;26.00;99.90
16114;DHT22;8161;-33.910;151.156;2022-12-01T05:06:46;26.00;99.90
16114;DHT22;8161;-33.910;151.156;2022-12-01T05:09:15;26.00;99.90
16114;DHT22;8161;-33.910;151.156;2022-12-01T05:11:42;26.00;99.90
16114;DHT22;8161;-33.910;151.156;2022-12-01T05:14:09;25.90;99.90
16114;DHT22;8161;-33.910;151.156;2022-12-01T05:16:37;26.00;99.90
16114;DHT22;8161;-33.910;151.156;2022-12-01T05:19:05;25.50;99.90
16114;DHT22;8161;-33.910;151.156;2022-12-01T05:21:48;25.50;99.90
16114;DHT22;8161;-33.910;151.156;2022-12-01T05:24:16;25.40;99.90
16114;DHT22;8161;-33.910;151.156;2022-12-01T05:26:44;25.40;99.90
16114;DHT22;8161;-33.910;151.156;2022-12-01T05:29:12;25.40;99.90
16114;DHT22;8161;-33.910;151.156;2022-12-01T05:31:40;25.50;99.90
16114;DHT22;8161;-33.910;151.156;2022-12-01T05:34:08;25.80;99.90
16114;DHT22;8161;-33.910;151.156;2022-12-01T05:36:35;25.80;99.90
16114;DHT22;8161;-33.910;151.156;2022-12-01T05:39:03;25.60;99.90
16114;DHT22;8161;-33.910;151.156;2022-12-01T05:41:31;25.80;99.90
16114;DHT22;8161;-33.910;151.156;2022-12-01T05:43:58;25.70;99.90
16114;DHT22;8161;-33.910;151.156;2022-12-01T05:46:25;25.90;99.90
16114;DHT22;8161;-33.910;151.156;2022-12-01T05:48:53;25.80;99.90
16114;DHT22;8161;-33.910;151.156;2022-12-01T05:51:20;25.90;99.90
16114;DHT22;8161;-33.910;151.156;2022-12-01T05:53:48;25.70;99.90
16114;DHT22;8161;-33.910;151.156;2022-12-01T05:56:15;25.60;99.90
16114;DHT22;8161;-33.910;151.156;2022-12-01T05:58:42;25.50;99.90
16114;DHT22;8161;-33.910;151.156;2022-12-01T06:01:10;25.00;99.90
16114;DHT22;8161;-33.910;151.156;2022-12-01T06:03:37;25.20;99.90
16114;DHT22;8161;-33.910;151.156;2022-12-01T06:06:04;25.30;99.90
16114;DHT22;8161;-33.910;151.156;2022-12-01T06:08:32;24.70;99.90
16114;DHT22;8161;-33.910;151.156;2022-12-01T06:10:59;25.00;99.90
16114;DHT22;8161;-33.910;151.156;2022-12-01T06:13:26;25.40;99.90
16114;DHT22;8161;-33.910;151.156;2022-12-01T06:16:02;25.00;99.90
16114;DHT22;8161;-33.910;151.156;2022-12-01T06:18:32;25.20;99.90
16114;DHT22;8161;-33.910;151.156;2022-12-01T06:21:00;25.40;99.90
16114;DHT22;8161;-33.910;151.156;2022-12-01T06:23:27;25.00;99.90
16114;DHT22;8161;-33.910;151.156;2022-12-01T06:25:54;25.00;99.90
16114;DHT22;8161;-33.910;151.156;2022-12-01T06:28:22;25.10;99.90
16114;DHT22;8161;-33.910;151.156;2022-12-01T06:30:49;24.90;99.90
16114;DHT22;8161;-33.910;151.156;2022-12-01T06:33:16;24.90;99.90
16114;DHT22;8161;-33.910;151.156;2022-12-01T06:35:43;24.50;99.90
16114;DHT22;8161;-33.910;151.156;2022-12-01T06:38:11;25.10;99.90
16114;DHT22;8161;-33.910;151.156;2022-12-01T06:40:38;24.90;99.90
16114;DHT22;8161;-33.910;151.156;2022-12-01T06:43:05;24.80;99.90
16114;DHT22;8161;-33.910;151.156;2022-12-01T06:45:32;24.90;99.90
16114;DHT22;8161;-33.910;151.156;2022-12-01T06:48:00;24.90;99.90
16114;DHT22;8161;-33.910;151.156;2022-12-01T06:50:27;25.10;99.90
16114;DHT22;8161;-33.910;151.156;2022-12-01T06:52:54;25.10;99.90
16114;DHT22;8161;-33.910;151.156;2022-12-01T06:55:21;24.80;99.90
16114;DHT22;8161;-33.910;151.156;2022-12-01T06:57:49;24.90;99.90
16114;DHT22;8161;-33.910;151.156;2022-12-01T07:00:16;24.60;99.90
16114;DHT22;8161;-33.910;151.156;2022-12-01T07:02:46;24.70;99.90
16114;DHT22;8161;-33.910;151.156;2022-12-01T07:05:13;24.50;99.90
16114;DHT22;8161;-33.910;151.156;2022-12-01T07:07:41;24.40;99.90
16114;DHT22;8161;-33.910;151.156;2022-12-01T07:10:09;24.20;99.90
16114;DHT22;8161;-33.910;151.156;2022-12-01T07:12:37;24.10;99.90
16114;DHT22;8161;-33.910;151.156;2022-12-01T07:15:06;24.00;99.90
16114;DHT22;8161;-33.910;151.156;2022-12-01T07:17:35;23.60;99.90
16114;DHT22;8161;-33.910;151.156;2022-12-01T07:20:02;24.00;99.90
16114;DHT22;8161;-33.910;151.156;2022-12-01T07:22:29;24.10;99.90
16114;DHT22;8161;-33.910;151.156;2022-12-01T07:24:57;24.00;99.90
16114;DHT22;8161;-33.910;151.156;2022-12-01T07:27:27;23.80;99.90
16114;DHT22;8161;-33.910;151.156;2022-12-01T07:29:54;23.40;99.90
16114;DHT22;8161;-33.910;151.156;2022-12-01T07:32:22;23.70;99.90
16114;DHT22;8161;-33.910;151.156;2022-12-01T07:34:49;23.10;99.90
16114;DHT22;8161;-33.910;151.156;2022-12-01T07:37:16;23.50;99.90
16114;DHT22;8161;-33.910;151.156;2022-12-01T07:39:43;23.50;99.90
16114;DHT22;8161;-33.910;151.156;2022-12-01T07:42:11;23.50;99.90
16114;DHT22;8161;-33.910;151.156;2022-12-01T07:44:38;23.30;99.90
16114;DHT22;8161;-33.910;151.156;2022-12-01T07:47:05;23.30;99.90
16114;DHT22;8161;-33.910;151.156;2022-12-01T07:49:33;23.30;99.90
16114;DHT22;8161;-33.910;151.156;2022-12-01T07:52:00;23.60;99.90
16114;DHT22;8161;-33.910;151.156;2022-12-01T07:54:27;22.90;99.90
16114;DHT22;8161;-33.910;151.156;2022-12-01T07:56:54;23.20;99.90
16114;DHT22;8161;-33.910;151.156;2022-12-01T07:59:22;22.90;99.90
16114;DHT22;8161;-33.910;151.156;2022-12-01T08:01:49;23.10;99.90
16114;DHT22;8161;-33.910;151.156;2022-12-01T08:04:19;23.00;99.90
16114;DHT22;8161;-33.910;151.156;2022-12-01T08:06:46;23.10;99.90
16114;DHT22;8161;-33.910;151.156;2022-12-01T08:09:13;22.80;99.90
16114;DHT22;8161;-33.910;151.156;2022-12-01T08:11:41;22.40;99.90
16114;DHT22;8161;-33.910;151.156;2022-12-01T08:14:08;22.70;99.90
16114;DHT22;8161;-33.910;151.156;2022-12-01T08:16:35;22.10;99.90
16114;DHT22;8161;-33.910;151.156;2022-12-01T08:19:02;22.50;99.90
16114;DHT22;8161;-33.910;151.156;2022-12-01T08:21:30;22.40;99.90
16114;DHT22;8161;-33.910;151.156;2022-12-01T08:23:58;22.50;99.90
16114;DHT22;8161;-33.910;151.156;2022-12-01T08:26:26;22.50;99.90
16114;DHT22;8161;-33.910;151.156;2022-12-01T08:28:53;22.50;99.90
16114;DHT22;8161;-33.910;151.156;2022-12-01T08:31:24;22.30;99.90
16114;DHT22;8161;-33.910;151.156;2022-12-01T08:33:55;22.60;99.90
16114;DHT22;8161;-33.910;151.156;2022-12-01T08:36:23;22.40;99.90
16114;DHT22;8161;-33.910;151.156;2022-12-01T08:38:53;22.40;99.90
16114;DHT22;8161;-33.910;151.156;2022-12-01T08:41:21;22.50;99.90
16114;DHT22;8161;-33.910;151.156;2022-12-01T08:43:48;22.30;99.90
16114;DHT22;8161;-33.910;151.156;2022-12-01T08:46:16;22.30;99.90
16114;DHT22;8161;-33.910;151.156;2022-12-01T08:48:43;21.50;99.90
16114;DHT22;8161;-33.910;151.156;2022-12-01T08:51:13;22.40;99.90
16114;DHT22;8161;-33.910;151.156;2022-12-01T08:53:44;22.20;99.90
16114;DHT22;8161;-33.910;151.156;2022-12-01T08:56:21;21.80;99.90
16114;DHT22;8161;-33.910;151.156;2022-12-01T08:58:49;21.70;99.90
16114;DHT22;8161;-33.910;151.156;2022-12-01T09:01:20;21.90;99.90
16114;DHT22;8161;-33.910;151.156;2022-12-01T09:03:48;22.20;99.90
16114;DHT22;8161;-33.910;151.156;2022-12-01T09:06:32;21.90;99.90
16114;DHT22;8161;-33.910;151.156;2022-12-01T09:09:00;21.80;99.90
16114;DHT22;8161;-33.910;151.156;2022-12-01T09:11:28;21.80;99.90
16114;DHT22;8161;-33.910;151.156;2022-12-01T09:13:55;21.50;99.90
16114;DHT22;8161;-33.910;151.156;2022-12-01T09:16:24;22.10;99.90
16114;DHT22;8161;-33.910;151.156;2022-12-01T09:18:51;21.60;99.90
16114;DHT22;8161;-33.910;151.156;2022-12-01T09:21:28;21.40;99.90
16114;DHT22;8161;-33.910;151.156;2022-12-01T09:23:59;21.50;99.90
16114;DHT22;8161;-33.910;151.156;2022-12-01T09:26:27;21.40;99.90
16114;DHT22;8161;-33.910;151.156;2022-12-01T09:28:58;21.60;99.90
16114;DHT22;8161;-33.910;151.156;2022-12-01T09:31:26;21.70;99.90
16114;DHT22;8161;-33.910;151.156;2022-12-01T09:33:59;21.50;99.90
16114;DHT22;8161;-33.910;151.156;2022-12-01T09:36:28;21.40;99.90
16114;DHT22;8161;-33.910;151.156;2022-12-01T09:38:56;21.10;99.90
16114;DHT22;8161;-33.910;151.156;2022-12-01T09:52:12;21.20;99.90
16114;DHT22;8161;-33.910;151.156;2022-12-01T09:54:40;21.30;99.90
16114;DHT22;8161;-33.910;151.156;2022-12-01T09:57:17;21.10;99.90
16114;DHT22;8161;-33.910;151.156;2022-12-01T09:59:51;21.60;99.90
16114;DHT22;8161;-33.910;151.156;2022-12-01T10:04:56;21.10;99.90
16114;DHT22;8161;-33.910;151.156;2022-12-01T10:07:29;21.10;99.90
16114;DHT22;8161;-33.910;151.156;2022-12-01T10:10:00;21.30;99.90
16114;DHT22;8161;-33.910;151.156;2022-12-01T10:12:34;20.90;99.90
16114;DHT22;8161;-33.910;151.156;2022-12-01T10:15:14;21.10;99.90
16114;DHT22;8161;-33.910;151.156;2022-12-01T10:28:54;21.00;99.90
16114;DHT22;8161;-33.910;151.156;2022-12-01T10:31:43;20.80;99.90
16114;DHT22;8161;-33.910;151.156;2022-12-01T10:34:26;21.00;99.90
16114;DHT22;8161;-33.910;151.156;2022-12-01T10:36:55;21.00;99.90
16114;DHT22;8161;-33.910;151.156;2022-12-01T10:42:12;20.90;99.90
16114;DHT22;8161;-33.910;151.156;2022-12-01T10:44:41;20.80;99.90
16114;DHT22;8161;-33.910;151.156;2022-12-01T10:47:22;20.80;99.90
16114;DHT22;8161;-33.910;151.156;2022-12-01T10:49:50;21.10;99.90
16114;DHT22;8161;-33.910;151.156;2022-12-01T10:54:59;20.80;99.90
16114;DHT22;8161;-33.910;151.156;2022-12-01T10:57:29;20.80;99.90
16114;DHT22;8161;-33.910;151.156;2022-12-01T11:00:06;20.50;99.90
16114;DHT22;8161;-33.910;151.156;2022-12-01T11:02:34;20.80;99.90
16114;DHT22;8161;-33.910;151.156;2022-12-01T11:05:05;20.40;99.90
16114;DHT22;8161;-33.910;151.156;2022-12-01T11:07:40;20.40;99.90
16114;DHT22;8161;-33.910;151.156;2022-12-01T11:10:23;20.40;99.90
16114;DHT22;8161;-33.910;151.156;2022-12-01T11:13:05;20.60;99.90
16114;DHT22;8161;-33.910;151.156;2022-12-01T11:15:38;20.30;99.90
16114;DHT22;8161;-33.910;151.156;2022-12-01T11:18:23;20.50;99.90
16114;DHT22;8161;-33.910;151.156;2022-12-01T11:23:33;20.30;99.90
16114;DHT22;8161;-33.910;151.156;2022-12-01T11:26:15;20.60;99.90
16114;DHT22;8161;-33.910;151.156;2022-12-01T11:31:18;20.30;99.90
16114;DHT22;8161;-33.910;151.156;2022-12-01T11:33:52;20.50;99.90
16114;DHT22;8161;-33.910;151.156;2022-12-01T11:36:34;20.30;99.90
16114;DHT22;8161;-33.910;151.156;2022-12-01T11:39:03;20.50;99.90
16114;DHT22;8161;-33.910;151.156;2022-12-01T11:41:38;20.40;99.90
16114;DHT22;8161;-33.910;151.156;2022-12-01T11:44:16;20.80;99.90
16114;DHT22;8161;-33.910;151.156;2022-12-01T11:46:46;20.30;99.90
16114;DHT22;8161;-33.910;151.156;2022-12-01T11:49:24;20.50;99.90
16114;DHT22;8161;-33.910;151.156;2022-12-01T11:51:54;20.40;99.90
16114;DHT22;8161;-33.910;151.156;2022-12-01T11:54:24;20.50;99.90
16114;DHT22;8161;-33.910;151.156;2022-12-01T11:56:53;20.30;99.90
16114;DHT22;8161;-33.910;151.156;2022-12-01T11:59:21;20.20;99.90
16114;DHT22;8161;-33.910;151.156;2022-12-01T12:15:20;20.10;99.90
16114;DHT22;8161;-33.910;151.156;2022-12-01T12:18:15;20.20;99.90
16114;DHT22;8161;-33.910;151.156;2022-12-01T12:24:12;20.40;99.90
16114;DHT22;8161;-33.910;151.156;2022-12-01T12:26:54;20.10;99.90
16114;DHT22;8161;-33.910;151.156;2022-12-01T12:51:30;20.30;99.90
16114;DHT22;8161;-33.910;151.156;2022-12-01T12:57:03;20.20;99.90
16114;DHT22;8161;-33.910;151.156;2022-12-01T12:59:55;19.90;99.90
16114;DHT22;8161;-33.910;151.156;2022-12-01T13:02:48;20.00;99.90
16114;DHT22;8161;-33.910;151.156;2022-12-01T13:08:18;20.00;99.90
16114;DHT22;8161;-33.910;151.156;2022-12-01T13:13:35;20.20;99.90
16114;DHT22;8161;-33.910;151.156;2022-12-01T13:16:05;20.10;99.90
16114;DHT22;8161;-33.910;151.156;2022-12-01T13:21:21;20.10;99.90
16114;DHT22;8161;-33.910;151.156;2022-12-01T13:23:50;20.20;99.90
16114;DHT22;8161;-33.910;151.156;2022-12-01T13:26:20;20.00;99.90
16114;DHT22;8161;-33.910;151.156;2022-12-01T13:28:53;20.00;99.90
16114;DHT22;8161;-33.910;151.156;2022-12-01T13:31:21;20.00;99.90
16114;DHT22;8161;-33.910;151.156;2022-12-01T13:36:25;19.80;99.90
16114;DHT22;8161;-33.910;151.156;2022-12-01T13:39:06;19.90;99.90
16114;DHT22;8161;-33.910;151.156;2022-12-01T13:41:42;19.80;99.90
16114;DHT22;8161;-33.910;151.156;2022-12-01T13:44:57;19.90;99.90
16114;DHT22;8161;-33.910;151.156;2022-12-01T13:49:45;19.90;99.90
16114;DHT22;8161;-33.910;151.156;2022-12-01T13:55:01;19.80;99.90
16114;DHT22;8161;-33.910;151.156;2022-12-01T13:57:32;19.70;99.90
16114;DHT22;8161;-33.910;151.156;2022-12-01T14:02:29;19.80;99.90
16114;DHT22;8161;-33.910;151.156;2022-12-01T14:07:51;20.10;99.90
16114;DHT22;8161;-33.910;151.156;2022-12-01T14:10:30;19.90;99.90
16114;DHT22;8161;-33.910;151.156;2022-12-01T14:13:03;20.10;99.90
16114;DHT22;8161;-33.910;151.156;2022-12-01T14:15:35;20.10;99.90
16114;DHT22;8161;-33.910;151.156;2022-12-01T14:18:18;19.60;99.90
16114;DHT22;8161;-33.910;151.156;2022-12-01T14:20:47;19.30;99.90
16114;DHT22;8161;-33.910;151.156;2022-12-01T14:23:23;19.80;99.90
16114;DHT22;8161;-33.910;151.156;2022-12-01T14:26:11;20.00;99.90
16114;DHT22;8161;-33.910;151.156;2022-12-01T14:34:07;19.60;99.90
16114;DHT22;8161;-33.910;151.156;2022-12-01T14:42:57;19.10;99.90
16114;DHT22;8161;-33.910;151.156;2022-12-01T14:46:25;19.50;99.90
16114;DHT22;8161;-33.910;151.156;2022-12-01T14:48:38;20.00;99.90
16114;DHT22;8161;-33.910;151.156;2022-12-01T14:51:26;19.80;99.90
16114;DHT22;8161;-33.910;151.156;2022-12-01T14:53:54;19.80;99.90
16114;DHT22;8161;-33.910;151.156;2022-12-01T14:56:23;19.60;99.90
16114;DHT22;8161;-33.910;151.156;2022-12-01T14:58:56;19.70;99.90
16114;DHT22;8161;-33.910;151.156;2022-12-01T15:01:32;19.80;99.90
16114;DHT22;8161;-33.910;151.156;2022-12-01T15:04:02;19.70;99.90
16114;DHT22;8161;-33.910;151.156;2022-12-01T15:06:32;19.60;99.90
16114;DHT22;8161;-33.910;151.156;2022-12-01T15:09:15;20.00;99.90
16114;DHT22;8161;-33.910;151.156;2022-12-01T15:12:00;19.50;99.90
16114;DHT22;8161;-33.910;151.156;2022-12-01T15:14:30;19.40;99.90
16114;DHT22;8161;-33.910;151.156;2022-12-01T15:16:58;19.60;99.90
16114;DHT22;8161;-33.910;151.156;2022-12-01T15:22:19;19.70;99.90
16114;DHT22;8161;-33.910;151.156;2022-12-01T15:24:47;19.50;99.90
16114;DHT22;8161;-33.910;151.156;2022-12-01T15:27:29;19.90;99.90
16114;DHT22;8161;-33.910;151.156;2022-12-01T15:29:58;19.70;99.90
16114;DHT22;8161;-33.910;151.156;2022-12-01T15:32:31;19.30;99.90
16114;DHT22;8161;-33.910;151.156;2022-12-01T15:35:00;19.70;99.90
16114;DHT22;8161;-33.910;151.156;2022-12-01T15:37:42;19.60;99.90
16114;DHT22;8161;-33.910;151.156;2022-12-01T15:40:16;19.60;99.90
16114;DHT22;8161;-33.910;151.156;2022-12-01T15:42:46;19.70;99.90
16114;DHT22;8161;-33.910;151.156;2022-12-01T15:45:25;19.90;99.90
16114;DHT22;8161;-33.910;151.156;2022-12-01T15:47:53;20.00;99.90
16114;DHT22;8161;-33.910;151.156;2022-12-01T15:50:36;19.80;99.90
16114;DHT22;8161;-33.910;151.156;2022-12-01T15:53:18;19.70;99.90
16114;DHT22;8161;-33.910;151.156;2022-12-01T15:55:48;19.70;99.90
16114;DHT22;8161;-33.910;151.156;2022-12-01T15:58:27;19.70;99.90
16114;DHT22;8161;-33.910;151.156;2022-12-01T16:01:01;19.50;99.90
16114;DHT22;8161;-33.910;151.156;2022-12-01T16:03:30;19.80;99.90
16114;DHT22;8161;-33.910;151.156;2022-12-01T16:06:01;19.30;99.90
16114;DHT22;8161;-33.910;151.156;2022-12-01T16:08:28;19.40;99.90
16114;DHT22;8161;-33.910;151.156;2022-12-01T16:11:11;19.70;99.90
16114;DHT22;8161;-33.910;151.156;2022-12-01T16:19:20;19.60;99.90
16114;DHT22;8161;-33.910;151.156;2022-12-01T16:21:58;19.60;99.90
16114;DHT22;8161;-33.910;151.156;2022-12-01T16:24:34;19.40;99.90
16114;DHT22;8161;-33.910;151.156;2022-12-01T16:27:14;19.50;99.90
16114;DHT22;8161;-33.910;151.156;2022-12-01T16:30:04;19.60;99.90
16114;DHT22;8161;-33.910;151.156;2022-12-01T16:32:40;19.60;99.90
16114;DHT22;8161;-33.910;151.156;2022-12-01T16:35:22;19.80;99.90
16114;DHT22;8161;-33.910;151.156;2022-12-01T16:37:50;19.50;99.90
16114;DHT22;8161;-33.910;151.156;2022-12-01T16:40:18;19.50;99.90
16114;DHT22;8161;-33.910;151.156;2022-12-01T16:42:46;19.50;99.90
16114;DHT22;8161;-33.910;151.156;2022-12-01T16:45:16;19.90;99.90
16114;DHT22;8161;-33.910;151.156;2022-12-01T16:47:45;19.50;99.90
16114;DHT22;8161;-33.910;151.156;2022-12-01T16:50:18;19.50;99.90
16114;DHT22;8161;-33.910;151.156;2022-12-01T16:52:46;19.50;99.90
16114;DHT22;8161;-33.910;151.156;2022-12-01T16:57:46;19.30;99.90
16114;DHT22;8161;-33.910;151.156;2022-12-01T17:00:14;19.10;99.90
16114;DHT22;8161;-33.910;151.156;2022-12-01T17:02:45;19.70;99.90
16114;DHT22;8161;-33.910;151.156;2022-12-01T17:05:12;19.30;99.90
16114;DHT22;8161;-33.910;151.156;2022-12-01T17:07:39;19.50;99.90
16114;DHT22;8161;-33.910;151.156;2022-12-01T17:10:07;19.60;99.90
16114;DHT22;8161;-33.910;151.156;2022-12-01T17:12:34;19.40;99.90
16114;DHT22;8161;-33.910;151.156;2022-12-01T17:15:02;19.50;99.90
16114;DHT22;8161;-33.910;151.156;2022-12-01T17:17:30;19.50;99.90
16114;DHT22;8161;-33.910;151.156;2022-12-01T17:19:57;19.50;99.90
16114;DHT22;8161;-33.910;151.156;2022-12-01T17:22:24;19.90;99.90
16114;DHT22;8161;-33.910;151.156;2022-12-01T17:24:51;19.50;99.90
16114;DHT22;8161;-33.910;151.156;2022-12-01T17:27:22;19.30;99.90
16114;DHT22;8161;-33.910;151.156;2022-12-01T17:29:50;19.50;99.90
16114;DHT22;8161;-33.910;151.156;2022-12-01T17:32:18;19.30;99.90
16114;DHT22;8161;-33.910;151.156;2022-12-01T17:34:46;19.40;99.90
16114;DHT22;8161;-33.910;151.156;2022-12-01T17:37:13;19.50;99.90
16114;DHT22;8161;-33.910;151.156;2022-12-01T17:39:40;19.40;99.90
16114;DHT22;8161;-33.910;151.156;2022-12-01T17:42:07;19.40;99.90
16114;DHT22;8161;-33.910;151.156;2022-12-01T17:44:35;19.70;99.90
16114;DHT22;8161;-33.910;151.156;2022-12-01T17:47:02;19.90;99.90
16114;DHT22;8161;-33.910;151.156;2022-12-01T17:49:30;19.10;99.90
16114;DHT22;8161;-33.910;151.156;2022-12-01T17:51:57;19.30;99.90
16114;DHT22;8161;-33.910;151.156;2022-12-01T17:54:24;19.20;99.90
16114;DHT22;8161;-33.910;151.156;2022-12-01T17:56:51;19.40;99.90
16114;DHT22;8161;-33.910;151.156;2022-12-01T17:59:19;19.00;99.90
16114;DHT22;8161;-33.910;151.156;2022-12-01T18:01:46;19.50;99.90
16114;DHT22;8161;-33.910;151.156;2022-12-01T18:04:14;19.20;99.90
16114;DHT22;8161;-33.910;151.156;2022-12-01T18:06:41;19.50;99.90
16114;DHT22;8161;-33.910;151.156;2022-12-01T18:09:08;19.30;99.90
16114;DHT22;8161;-33.910;151.156;2022-12-01T18:11:36;19.50;99.90
16114;DHT22;8161;-33.910;151.156;2022-12-01T18:14:03;19.60;99.90
16114;DHT22;8161;-33.910;151.156;2022-12-01T18:16:31;19.70;99.90
16114;DHT22;8161;-33.910;151.156;2022-12-01T18:19:00;19.10;99.90